createdAt,value
2023-04-11T00:02:27.033Z,4.63
2023-04-11T00:05:11.455Z,2.08
2023-04-11T00:07:54.076Z,2.70
2023-04-11T00:10:36.697Z,2.30
2023-04-11T00:13:20.598Z,3.65
2023-04-11T00:16:03.470Z,3.08
2023-04-11T00:18:46.278Z,2.20
2023-04-11T00:21:30.235Z,1.80
2023-04-11T00:24:12.826Z,3.22
2023-04-11T00:26:56.682Z,2.92
2023-04-11T00:29:39.290Z,2.63
2023-04-11T00:32:21.962Z,2.53
2023-04-11T00:35:05.843Z,2.78
2023-04-11T00:37:54.221Z,3.22
2023-04-11T00:40:36.807Z,3.13
2023-04-11T00:43:19.529Z,2.47
2023-04-11T00:46:02.193Z,2.30
2023-04-11T00:48:45.793Z,2.33
2023-04-11T00:51:28.894Z,2.50
2023-04-11T00:54:13.197Z,2.33
2023-04-11T00:56:56.993Z,1.85
2023-04-11T00:59:39.647Z,2.65
2023-04-11T01:02:24.868Z,3.65
2023-04-11T01:05:09.767Z,2.67
2023-04-11T01:07:54.867Z,2.38
2023-04-11T01:10:39.608Z,3.17
2023-04-11T01:13:22.364Z,3.03
2023-04-11T01:16:05.159Z,2.70
2023-04-11T01:18:47.859Z,1.88
2023-04-11T01:21:31.851Z,2.22
2023-04-11T01:24:16.034Z,3.40
2023-04-11T01:26:58.830Z,1.85
2023-04-11T01:29:41.568Z,2.53
2023-04-11T01:32:24.220Z,1.55
2023-04-11T01:35:07.935Z,1.95
2023-04-11T01:37:50.681Z,2.28
2023-04-11T01:40:35.156Z,2.10
2023-04-11T01:43:17.790Z,2.60
2023-04-11T01:46:00.583Z,2.30
2023-04-11T01:48:45.796Z,2.65
2023-04-11T01:51:28.572Z,2.45
2023-04-11T01:54:11.433Z,1.60
2023-04-11T01:56:55.877Z,3.35
2023-04-11T01:59:38.541Z,2.35
2023-04-11T02:02:21.216Z,3.25
2023-04-11T02:05:04.431Z,1.70
2023-04-11T02:07:46.995Z,2.17
2023-04-11T02:10:33.554Z,2.17
2023-04-11T02:13:17.518Z,2.38
2023-04-11T02:16:05.422Z,1.42
2023-04-11T02:18:48.820Z,1.75
2023-04-11T02:21:31.674Z,1.90
2023-04-11T02:24:14.230Z,1.52
2023-04-11T02:26:57.137Z,1.83
2023-04-11T02:29:43.005Z,1.40
2023-04-11T02:32:26.223Z,2.03
2023-04-11T02:35:09.210Z,2.55
2023-04-11T02:37:51.833Z,2.10
2023-04-11T02:40:34.431Z,1.92
2023-04-11T02:43:17.219Z,1.75
2023-04-11T02:46:11.756Z,2.35
2023-04-11T02:48:57.744Z,1.73
2023-04-11T02:51:40.995Z,2.10
2023-04-11T02:54:24.036Z,1.92
2023-04-11T02:57:06.823Z,1.35
2023-04-11T02:59:49.493Z,2.10
2023-04-11T03:02:39.314Z,1.35
2023-04-11T03:05:22.349Z,3.15
2023-04-11T03:08:08.965Z,2.10
2023-04-11T03:10:53.855Z,2.17
2023-04-11T03:13:39.357Z,3.97
2023-04-11T03:16:22.106Z,3.00
2023-04-11T03:19:06.447Z,2.53
2023-04-11T03:21:49.152Z,1.83
2023-04-11T03:24:32.312Z,2.97
2023-04-11T03:27:14.993Z,2.55
2023-04-11T03:30:00.498Z,1.38
2023-04-11T03:32:54.630Z,1.20
2023-04-11T03:35:38.607Z,1.02
2023-04-11T03:38:21.901Z,0.77
2023-04-11T03:41:04.598Z,1.15
2023-04-11T03:43:48.242Z,0.50
2023-04-11T03:46:31.332Z,0.95
2023-04-11T03:49:14.029Z,1.23
2023-04-11T03:51:58.330Z,0.45
2023-04-11T03:54:44.014Z,1.17
2023-04-11T03:57:28.556Z,0.45
2023-04-11T04:00:12.425Z,0.68
2023-04-11T04:02:58.104Z,1.75
2023-04-11T04:05:41.209Z,1.10
2023-04-11T04:08:26.282Z,0.57
2023-04-11T04:11:09.000Z,0.68
2023-04-11T04:13:52.948Z,1.05
2023-04-11T04:16:36.127Z,1.05
2023-04-11T04:19:21.543Z,0.52
2023-04-11T04:22:04.603Z,0.80
2023-04-11T04:24:53.093Z,1.45
2023-04-11T04:27:44.400Z,0.98
2023-04-11T04:30:29.149Z,1.85
2023-04-11T04:33:19.678Z,2.28
2023-04-11T04:36:05.199Z,0.68
2023-04-11T04:38:49.034Z,0.47
2023-04-11T04:41:34.252Z,2.28
2023-04-11T04:44:17.363Z,1.55
2023-04-11T04:47:06.982Z,0.77
2023-04-11T04:49:49.783Z,1.85
2023-04-11T04:52:32.425Z,2.22
2023-04-11T04:55:15.412Z,1.30
2023-04-11T04:57:59.769Z,0.38
2023-04-11T05:00:42.995Z,0.73
2023-04-11T05:03:35.914Z,0.85
2023-04-11T05:06:21.017Z,0.85
2023-04-11T05:09:06.172Z,1.90
2023-04-11T05:11:50.430Z,1.05
2023-04-11T05:14:34.992Z,2.15
2023-04-11T05:17:18.096Z,1.52
2023-04-11T05:20:01.152Z,1.10
2023-04-11T05:22:44.459Z,4.85
2023-04-11T05:25:27.205Z,1.67
2023-04-11T05:28:10.970Z,2.17
2023-04-11T05:30:55.099Z,1.45
2023-04-11T05:33:38.385Z,3.45
2023-04-11T05:36:21.301Z,2.90
2023-04-11T05:39:04.075Z,3.03
2023-04-11T05:41:46.752Z,1.40
2023-04-11T05:44:29.360Z,1.60
2023-04-11T05:47:13.298Z,1.10
2023-04-11T05:49:55.951Z,2.47
2023-04-11T05:52:38.550Z,3.53
2023-04-11T05:55:22.152Z,2.47
2023-04-11T05:58:04.774Z,5.28
2023-04-11T06:00:49.683Z,2.20
2023-04-11T06:03:33.847Z,3.03
2023-04-11T06:06:16.603Z,1.95
2023-04-11T06:08:59.148Z,2.55
2023-04-11T06:11:41.810Z,1.63
2023-04-11T06:14:24.392Z,2.42
2023-04-11T06:17:07.084Z,2.72
2023-04-11T06:19:51.151Z,2.10
2023-04-11T06:22:33.781Z,1.20
2023-04-11T06:25:16.406Z,1.42
2023-04-11T06:27:59.017Z,2.00
2023-04-11T06:30:41.713Z,1.48
2023-04-11T06:33:24.418Z,2.08
2023-04-11T06:36:09.050Z,2.97
2023-04-11T06:38:51.758Z,2.28
2023-04-11T06:41:35.436Z,4.47
2023-04-11T06:44:18.205Z,2.72
2023-04-11T06:47:00.977Z,4.05
2023-04-11T06:49:43.804Z,3.38
2023-04-11T06:52:28.352Z,3.72
2023-04-11T06:55:14.408Z,2.30
2023-04-11T06:57:57.019Z,1.80
2023-04-11T07:00:39.714Z,3.47
2023-04-11T07:03:25.149Z,3.22
2023-04-11T07:06:08.485Z,2.95
2023-04-11T07:08:53.926Z,1.67
2023-04-11T07:11:38.595Z,2.55
2023-04-11T07:14:21.260Z,2.13
2023-04-11T07:17:03.931Z,2.33
2023-04-11T07:19:46.591Z,1.98
2023-04-11T07:22:30.402Z,2.13
2023-04-11T07:25:15.627Z,4.28
2023-04-11T07:27:58.560Z,3.13
2023-04-11T07:30:41.833Z,1.95
2023-04-11T07:33:24.670Z,1.65
2023-04-11T07:36:07.939Z,3.88
2023-04-11T07:38:50.666Z,1.90
2023-04-11T07:41:34.607Z,0.95
2023-04-11T07:44:17.277Z,1.23
2023-04-11T07:46:59.916Z,1.27
2023-04-11T07:49:42.610Z,0.47
2023-04-11T07:52:25.235Z,1.08
2023-04-11T07:55:08.191Z,2.00
2023-04-11T07:57:52.138Z,0.85
2023-04-11T08:00:35.175Z,1.05
2023-04-11T08:03:17.978Z,0.60
2023-04-11T08:06:01.102Z,0.40
2023-04-11T08:08:43.689Z,1.05
2023-04-11T08:11:26.518Z,1.00
2023-04-11T08:14:10.542Z,1.60
2023-04-11T08:16:53.423Z,0.55
2023-04-11T08:19:36.868Z,0.82
2023-04-11T08:22:19.501Z,0.70
2023-04-11T08:25:02.347Z,2.10
2023-04-11T08:27:45.070Z,0.45
2023-04-11T08:30:29.170Z,0.65
2023-04-11T08:33:12.211Z,2.42
2023-04-11T08:35:54.907Z,1.70
2023-04-11T08:38:37.660Z,2.78
2023-04-11T08:41:20.428Z,0.88
2023-04-11T08:44:03.645Z,3.55
2023-04-11T08:46:47.615Z,2.13
2023-04-11T08:49:30.331Z,0.88
2023-04-11T08:52:13.251Z,0.80
2023-04-11T08:54:56.035Z,0.73
2023-04-11T08:57:39.069Z,0.40
2023-04-11T09:00:24.938Z,1.25
2023-04-11T09:03:09.960Z,0.60
2023-04-11T09:05:52.743Z,1.58
2023-04-11T09:08:38.942Z,1.20
2023-04-11T09:11:22.130Z,1.13
2023-04-11T09:14:08.264Z,0.63
2023-04-11T09:16:54.756Z,0.80
2023-04-11T09:19:38.766Z,1.35
2023-04-11T09:22:21.418Z,0.70
2023-04-11T09:25:04.298Z,2.60
2023-04-11T09:27:47.286Z,2.15
2023-04-11T09:30:31.489Z,3.10
2023-04-11T09:33:25.582Z,2.28
2023-04-11T09:36:20.627Z,2.38
2023-04-11T09:39:16.672Z,2.83
2023-04-11T09:41:59.354Z,4.22
2023-04-11T09:44:42.077Z,3.13
2023-04-11T09:47:24.882Z,0.95
2023-04-11T09:50:08.212Z,3.42
2023-04-11T09:52:52.824Z,2.85
2023-04-11T09:55:35.637Z,2.17
2023-04-11T09:58:18.609Z,2.75
2023-04-11T10:01:01.715Z,1.55
2023-04-11T10:03:47.247Z,2.47
2023-04-11T10:06:33.852Z,1.85
2023-04-11T10:09:18.208Z,1.73
2023-04-11T10:12:00.904Z,2.60
2023-04-11T10:14:43.899Z,1.63
2023-04-11T10:17:27.194Z,2.47
2023-04-11T10:20:44.872Z,2.28
2023-04-11T10:23:27.485Z,2.28
2023-04-11T10:26:14.170Z,1.30
2023-04-11T10:28:56.873Z,1.38
2023-04-11T10:32:06.871Z,1.13
2023-04-11T10:35:08.399Z,1.55
2023-04-11T10:37:51.525Z,1.15
2023-04-11T10:40:34.258Z,1.42
2023-04-11T10:43:22.185Z,1.52
2023-04-11T10:46:21.092Z,3.22
2023-04-11T10:49:04.532Z,2.53
2023-04-11T10:51:47.420Z,1.13
2023-04-11T10:54:30.099Z,2.22
2023-04-11T10:57:12.872Z,2.25
2023-04-11T11:00:00.676Z,0.52
2023-04-11T11:02:43.860Z,1.02
2023-04-11T11:05:26.726Z,0.77
2023-04-11T11:08:09.670Z,1.25
2023-04-11T11:10:52.321Z,0.70
2023-04-11T11:13:42.248Z,0.70
2023-04-11T11:16:26.780Z,0.90
2023-04-11T11:19:14.972Z,1.92
2023-04-11T11:21:59.720Z,0.60
2023-04-11T11:24:42.392Z,2.15
2023-04-11T11:27:26.075Z,2.20
2023-04-11T11:30:11.830Z,1.67
2023-04-11T11:32:56.177Z,0.70
2023-04-11T11:35:38.954Z,2.20
2023-04-11T11:38:21.830Z,1.27
2023-04-11T11:41:04.774Z,1.38
2023-04-11T11:43:47.745Z,2.33
2023-04-11T11:46:33.576Z,0.40
2023-04-11T11:49:17.609Z,0.73
2023-04-11T11:52:01.303Z,0.55
2023-04-11T11:54:44.527Z,0.73
2023-04-11T11:57:27.552Z,0.98
2023-04-11T12:00:11.635Z,0.45
2023-04-11T12:02:55.235Z,1.38
2023-04-11T12:05:39.501Z,0.20
2023-04-11T12:08:23.099Z,1.15
2023-04-11T12:11:11.538Z,0.70
2023-04-11T12:13:54.645Z,0.20
2023-04-11T12:16:38.451Z,0.80
2023-04-11T12:19:21.143Z,1.40
2023-04-11T12:22:05.110Z,0.35
2023-04-11T12:24:48.039Z,0.40
2023-04-11T12:27:30.766Z,0.38
2023-04-11T12:30:15.170Z,0.57
2023-04-11T12:32:57.913Z,1.52
2023-04-11T12:35:40.721Z,0.57
2023-04-11T12:38:24.772Z,0.60
2023-04-11T12:41:30.241Z,1.27
2023-04-11T12:44:10.036Z,1.48
2023-04-11T12:46:53.039Z,1.00
2023-04-11T12:49:35.823Z,0.60
2023-04-11T12:52:18.534Z,0.40
2023-04-11T12:55:02.573Z,0.82
2023-04-11T12:57:45.274Z,0.68
2023-04-11T13:00:27.917Z,0.60
2023-04-11T13:03:11.051Z,1.33
2023-04-11T13:05:54.120Z,2.67
2023-04-11T13:08:37.849Z,1.65
2023-04-11T13:11:21.865Z,2.20
2023-04-11T13:14:04.627Z,1.90
2023-04-11T13:16:48.376Z,1.40
2023-04-11T13:19:31.269Z,3.17
2023-04-11T13:22:13.892Z,1.20
2023-04-11T13:24:56.525Z,1.67
2023-04-11T13:27:40.483Z,3.40
2023-04-11T13:30:23.149Z,2.65
2023-04-11T13:33:05.779Z,1.77
2023-04-11T13:35:48.486Z,3.00
2023-04-11T13:38:31.390Z,3.90
2023-04-11T13:41:15.041Z,4.00
2023-04-11T13:43:59.047Z,0.90
2023-04-11T13:46:41.697Z,1.35
2023-04-11T13:49:24.310Z,1.17
2023-04-11T13:52:07.027Z,1.35
2023-04-11T13:54:49.981Z,2.83
2023-04-11T13:57:32.654Z,1.88
2023-04-11T14:00:17.462Z,1.75
2023-04-11T14:03:00.255Z,1.40
2023-04-11T14:05:43.074Z,2.75
2023-04-11T14:08:25.759Z,2.72
2023-04-11T14:11:08.446Z,2.97
2023-04-11T14:13:51.125Z,1.90
2023-04-11T14:16:35.204Z,2.85
2023-04-11T14:19:17.924Z,4.75
2023-04-11T14:22:00.719Z,5.82
2023-04-11T14:24:43.442Z,3.15
2023-04-11T14:27:26.085Z,2.35
2023-04-11T14:30:09.780Z,6.07
2023-04-11T14:32:53.875Z,4.30
2023-04-11T14:35:36.684Z,4.70
2023-04-11T14:38:19.278Z,3.00
2023-04-11T14:41:01.952Z,6.03
2023-04-11T14:43:44.579Z,3.60
2023-04-11T14:46:27.995Z,3.90
2023-04-11T14:49:12.021Z,2.85
2023-04-11T14:51:54.691Z,4.38
2023-04-11T14:54:37.347Z,5.93
2023-04-11T14:57:20.046Z,4.60
2023-04-11T15:00:05.384Z,4.25
2023-04-11T15:02:49.050Z,3.00
2023-04-11T15:05:33.059Z,6.38
2023-04-11T15:08:15.810Z,3.70
2023-04-11T15:10:58.405Z,4.47
2023-04-11T15:13:41.036Z,6.10
2023-04-11T15:16:23.788Z,4.78
2023-04-11T15:19:06.502Z,4.97
2023-04-11T15:21:50.491Z,6.20
2023-04-11T15:24:33.217Z,6.75
2023-04-11T15:27:16.098Z,5.10
2023-04-11T15:29:59.606Z,7.30
2023-04-11T15:32:42.894Z,8.30
2023-04-11T15:35:25.710Z,8.50
2023-04-11T15:38:09.708Z,4.88
2023-04-11T15:40:52.810Z,3.10
2023-04-11T15:43:35.426Z,3.40
2023-04-11T15:46:18.203Z,2.50
2023-04-11T15:49:00.868Z,4.68
2023-04-11T15:51:45.384Z,3.53
2023-04-11T15:54:29.395Z,2.15
2023-04-11T15:57:12.063Z,5.55
2023-04-11T15:59:54.743Z,3.92
2023-04-11T16:02:37.669Z,4.45
2023-04-11T16:05:21.890Z,4.85
2023-04-11T16:08:04.731Z,3.63
2023-04-11T16:10:48.796Z,2.83
2023-04-11T16:13:31.524Z,4.68
2023-04-11T16:16:14.211Z,5.43
2023-04-11T16:18:57.067Z,4.20
2023-04-11T16:21:39.720Z,3.53
2023-04-11T16:24:22.433Z,4.28
2023-04-11T16:27:06.504Z,3.25
2023-04-11T16:29:49.427Z,3.97
2023-04-11T16:32:32.139Z,4.00
2023-04-11T16:35:14.851Z,1.73
2023-04-11T16:37:58.023Z,4.40
2023-04-11T16:40:40.792Z,2.10
2023-04-11T16:43:24.767Z,3.47
2023-04-11T16:46:12.343Z,6.93
2023-04-11T16:48:55.155Z,3.33
2023-04-11T16:51:38.148Z,4.72
2023-04-11T16:54:20.861Z,4.00
2023-04-11T16:57:03.974Z,4.07
2023-04-11T16:59:47.997Z,1.90
2023-04-11T17:02:30.835Z,5.25
2023-04-11T17:05:13.601Z,1.80
2023-04-11T17:07:56.778Z,3.03
2023-04-11T17:10:39.430Z,4.60
2023-04-11T17:13:22.161Z,2.95
2023-04-11T17:16:06.639Z,3.53
2023-04-11T17:18:49.308Z,3.28
2023-04-11T17:21:32.679Z,3.65
2023-04-11T17:24:15.780Z,4.25
2023-04-11T17:26:59.302Z,1.52
2023-04-11T17:29:42.008Z,3.08
2023-04-11T17:32:25.998Z,3.08
2023-04-11T17:35:09.504Z,3.15
2023-04-11T17:37:52.300Z,5.00
2023-04-11T17:40:35.108Z,3.67
2023-04-11T17:43:17.854Z,5.13
2023-04-11T17:46:01.625Z,8.50
2023-04-11T17:48:45.795Z,5.80
2023-04-11T17:51:29.333Z,4.63
2023-04-11T17:54:12.074Z,3.90
2023-04-11T17:56:54.818Z,6.20
2023-04-11T17:59:37.582Z,4.95
2023-04-11T18:02:20.905Z,6.10
2023-04-11T18:05:16.473Z,4.90
2023-04-11T18:08:04.588Z,5.68
2023-04-11T18:10:47.226Z,4.90
2023-04-11T18:13:29.955Z,3.75
2023-04-11T18:16:12.672Z,4.97
2023-04-11T18:18:55.315Z,8.00
2023-04-11T18:21:39.517Z,7.97
2023-04-11T18:24:22.228Z,4.45
2023-04-11T18:27:04.887Z,5.57
2023-04-11T18:29:51.624Z,6.40
2023-04-11T18:32:40.645Z,5.95
2023-04-11T18:35:25.902Z,4.68
2023-04-11T18:38:09.884Z,2.35
2023-04-11T18:40:56.040Z,4.70
2023-04-11T18:43:40.277Z,10.35
2023-04-11T18:52:29.046Z,2.67
2023-04-11T18:55:13.411Z,4.10
2023-04-11T18:57:59.672Z,4.00
2023-04-11T19:00:43.710Z,3.95
2023-04-11T19:03:26.864Z,6.32
2023-04-11T19:06:10.290Z,5.97
2023-04-11T19:08:53.257Z,3.88
2023-04-11T19:11:38.431Z,4.05
2023-04-11T19:14:21.402Z,5.38
2023-04-11T19:17:04.255Z,4.78
2023-04-11T19:19:47.008Z,5.40
2023-04-11T19:22:29.846Z,6.38
2023-04-11T19:25:13.174Z,4.80
2023-04-11T19:27:57.929Z,3.90
2023-04-11T19:30:40.736Z,5.22
2023-04-11T19:33:26.073Z,5.35
2023-04-11T19:36:09.134Z,3.75
2023-04-11T19:38:51.863Z,6.18
2023-04-11T19:41:34.555Z,3.67
2023-04-11T19:44:18.709Z,4.07
2023-04-11T19:47:01.612Z,5.10
2023-04-11T19:49:44.269Z,3.67
2023-04-11T19:52:27.269Z,4.88
2023-04-11T19:55:10.407Z,5.22
2023-04-11T19:57:53.076Z,4.95
2023-04-11T20:00:38.536Z,3.38
2023-04-11T20:03:21.791Z,6.47
2023-04-11T20:06:05.931Z,2.95
2023-04-11T20:08:49.020Z,4.40
2023-04-11T20:11:33.224Z,5.65
2023-04-11T20:14:16.228Z,3.67
2023-04-11T20:17:00.718Z,3.92
2023-04-11T20:19:44.912Z,6.45
2023-04-11T20:22:27.724Z,6.10
2023-04-11T20:25:11.832Z,3.92
2023-04-11T20:27:54.648Z,4.85
2023-04-11T20:30:38.867Z,6.15
2023-04-11T20:33:23.003Z,9.10
2023-04-11T20:36:06.633Z,4.22
2023-04-11T20:38:49.287Z,5.93
2023-04-11T20:41:32.306Z,5.78
2023-04-11T20:44:18.236Z,5.55
2023-04-11T20:47:00.978Z,4.45
2023-04-11T20:49:49.753Z,6.28
2023-04-11T20:52:32.711Z,6.05
2023-04-11T20:55:15.736Z,5.70
2023-04-11T20:57:58.542Z,5.93
2023-04-11T21:00:41.632Z,6.63
2023-04-11T21:03:24.513Z,5.93
2023-04-11T21:06:08.995Z,6.35
2023-04-11T21:08:51.917Z,5.47
2023-04-11T21:11:34.551Z,6.38
2023-04-11T21:14:17.204Z,7.53
2023-04-11T21:16:59.971Z,7.00
2023-04-11T21:19:42.690Z,7.03
2023-04-11T21:22:26.741Z,7.78
2023-04-11T21:25:09.881Z,5.45
2023-04-11T21:27:52.577Z,6.07
2023-04-11T21:30:35.251Z,7.43
2023-04-11T21:33:17.981Z,7.10
2023-04-11T21:36:00.756Z,6.80
2023-04-11T21:38:44.789Z,8.88
2023-04-11T21:41:28.709Z,8.98
2023-04-11T21:44:11.414Z,5.25
2023-04-11T21:46:54.466Z,4.65
2023-04-11T21:49:37.165Z,7.25
2023-04-11T21:52:19.821Z,5.15
2023-04-11T21:55:05.885Z,9.82
2023-04-11T21:57:50.934Z,5.15
2023-04-11T22:00:33.637Z,5.68
2023-04-11T22:03:19.882Z,8.85
2023-04-11T22:06:02.766Z,5.43
2023-04-11T22:08:50.844Z,7.82
2023-04-11T22:11:34.930Z,7.38
2023-04-11T22:14:18.155Z,4.88
2023-04-11T22:17:00.847Z,7.93
2023-04-11T22:19:44.003Z,7.82
2023-04-11T22:22:28.946Z,9.57
2023-04-11T22:25:11.774Z,6.90
2023-04-11T22:27:55.842Z,6.25
2023-04-11T22:30:38.529Z,4.93
2023-04-11T22:33:21.508Z,5.70
2023-04-11T22:36:04.576Z,6.75
2023-04-11T22:38:47.396Z,6.32
2023-04-11T22:41:33.103Z,5.80
2023-04-11T22:44:17.319Z,9.20
2023-04-11T22:47:06.597Z,9.23
2023-04-11T22:49:50.223Z,7.65
2023-04-11T22:52:32.853Z,8.85
2023-04-11T22:55:16.001Z,8.85
2023-04-11T22:57:58.721Z,9.43
2023-04-11T23:00:43.819Z,6.97
2023-04-11T23:03:26.502Z,8.38
2023-04-11T23:06:09.632Z,8.18
2023-04-11T23:08:54.188Z,7.05
2023-04-11T23:11:36.813Z,6.75
2023-04-11T23:14:22.304Z,8.93
2023-04-11T23:17:06.598Z,7.93
2023-04-11T23:19:49.480Z,8.02
2023-04-11T23:22:32.430Z,7.95
2023-04-11T23:25:15.493Z,7.47
2023-04-11T23:27:58.300Z,7.47
2023-04-11T23:30:41.502Z,7.47
2023-04-11T23:33:25.755Z,7.00
2023-04-11T23:36:09.126Z,6.68
2023-04-11T23:38:51.755Z,5.75
2023-04-11T23:41:34.361Z,7.25
2023-04-11T23:44:16.935Z,6.05
2023-04-11T23:47:00.195Z,6.88
2023-04-11T23:49:44.412Z,7.22
2023-04-11T23:52:27.029Z,5.97
2023-04-11T23:55:09.795Z,6.13
2023-04-11T23:57:52.442Z,6.20
